sensor_id;sensor_type;location;lat;lon;timestamp;temperature;humidity
22781;DHT22;11557;50.884;4.322;2023-12-22T00:00:40;10.90;99.90
22781;DHT22;11557;50.884;4.322;2023-12-22T00:03:06;10.70;99.90
22781;DHT22;11557;50.884;4.322;2023-12-22T00:05:32;10.50;99.90
22781;DHT22;11557;50.884;4.322;2023-12-22T00:07:57;10.50;99.90
22781;DHT22;11557;50.884;4.322;2023-12-22T00:10:23;10.40;99.90
22781;DHT22;11557;50.884;4.322;2023-12-22T00:12:48;10.40;99.90
22781;DHT22;11557;50.884;4.322;2023-12-22T00:15:14;10.50;99.90
22781;DHT22;11557;50.884;4.322;2023-12-22T00:17:39;10.50;99.90
22781;DHT22;11557;50.884;4.322;2023-12-22T00:20:05;10.60;99.90
22781;DHT22;11557;50.884;4.322;2023-12-22T00:22:31;10.60;99.90
22781;DHT22;11557;50.884;4.322;2023-12-22T00:24:57;10.60;99.90
22781;DHT22;11557;50.884;4.322;2023-12-22T00:27:23;10.50;99.90
22781;DHT22;11557;50.884;4.322;2023-12-22T00:29:48;10.30;99.90
22781;DHT22;11557;50.884;4.322;2023-12-22T00:32:14;10.20;99.90
22781;DHT22;11557;50.884;4.322;2023-12-22T00:34:39;10.10;99.90
22781;DHT22;11557;50.884;4.322;2023-12-22T00:37:05;10.10;99.90
22781;DHT22;11557;50.884;4.322;2023-12-22T00:39:31;10.00;99.90
22781;DHT22;11557;50.884;4.322;2023-12-22T00:41:56;10.00;99.90
22781;DHT22;11557;50.884;4.322;2023-12-22T00:44:22;9.90;99.90
22781;DHT22;11557;50.884;4.322;2023-12-22T00:46:48;9.90;99.90
22781;DHT22;11557;50.884;4.322;2023-12-22T00:49:14;9.80;99.90
22781;DHT22;11557;50.884;4.322;2023-12-22T00:51:40;9.70;99.90
22781;DHT22;11557;50.884;4.322;2023-12-22T00:54:05;9.60;99.90
22781;DHT22;11557;50.884;4.322;2023-12-22T00:56:31;9.60;99.90
22781;DHT22;11557;50.884;4.322;2023-12-22T00:58:56;9.60;99.90
22781;DHT22;11557;50.884;4.322;2023-12-22T01:01:22;9.60;99.90
22781;DHT22;11557;50.884;4.322;2023-12-22T01:03:48;9.60;99.90
22781;DHT22;11557;50.884;4.322;2023-12-22T01:06:13;9.70;99.90
22781;DHT22;11557;50.884;4.322;2023-12-22T01:08:40;9.60;99.90
22781;DHT22;11557;50.884;4.322;2023-12-22T01:11:06;9.70;99.90
22781;DHT22;11557;50.884;4.322;2023-12-22T01:13:31;9.80;99.90
22781;DHT22;11557;50.884;4.322;2023-12-22T01:15:57;9.90;99.90
22781;DHT22;11557;50.884;4.322;2023-12-22T01:18:22;9.90;99.90
22781;DHT22;11557;50.884;4.322;2023-12-22T01:20:50;9.90;99.90
22781;DHT22;11557;50.884;4.322;2023-12-22T01:23:16;9.80;99.90
22781;DHT22;11557;50.884;4.322;2023-12-22T01:25:41;9.90;99.90
22781;DHT22;11557;50.884;4.322;2023-12-22T01:28:07;9.90;99.90
22781;DHT22;11557;50.884;4.322;2023-12-22T01:30:33;9.90;99.90
22781;DHT22;11557;50.884;4.322;2023-12-22T01:32:58;10.00;99.90
22781;DHT22;11557;50.884;4.322;2023-12-22T01:35:24;10.00;99.90
22781;DHT22;11557;50.884;4.322;2023-12-22T01:37:49;10.10;99.90
22781;DHT22;11557;50.884;4.322;2023-12-22T01:40:16;10.00;99.90
22781;DHT22;11557;50.884;4.322;2023-12-22T01:42:42;10.10;99.90
22781;DHT22;11557;50.884;4.322;2023-12-22T01:45:08;10.00;99.90
22781;DHT22;11557;50.884;4.322;2023-12-22T01:47:34;10.00;99.90
22781;DHT22;11557;50.884;4.322;2023-12-22T01:50:00;10.10;99.90
22781;DHT22;11557;50.884;4.322;2023-12-22T01:52:27;10.10;99.90
22781;DHT22;11557;50.884;4.322;2023-12-22T01:54:53;10.10;99.90
22781;DHT22;11557;50.884;4.322;2023-12-22T01:57:20;10.10;99.90
22781;DHT22;11557;50.884;4.322;2023-12-22T01:59:48;10.10;99.90
22781;DHT22;11557;50.884;4.322;2023-12-22T02:02:14;10.10;99.90
22781;DHT22;11557;50.884;4.322;2023-12-22T02:04:39;10.20;99.90
22781;DHT22;11557;50.884;4.322;2023-12-22T02:07:06;10.20;99.90
22781;DHT22;11557;50.884;4.322;2023-12-22T02:09:34;10.20;99.90
22781;DHT22;11557;50.884;4.322;2023-12-22T02:11:59;10.10;99.90
22781;DHT22;11557;50.884;4.322;2023-12-22T02:14:25;10.20;99.90
22781;DHT22;11557;50.884;4.322;2023-12-22T02:16:55;10.10;99.90
22781;DHT22;11557;50.884;4.322;2023-12-22T02:19:41;10.00;99.90
22781;DHT22;11557;50.884;4.322;2023-12-22T02:22:09;9.90;99.90
22781;DHT22;11557;50.884;4.322;2023-12-22T02:24:35;10.00;99.90
22781;DHT22;11557;50.884;4.322;2023-12-22T02:29:57;10.10;99.90
22781;DHT22;11557;50.884;4.322;2023-12-22T02:32:34;10.10;99.90
22781;DHT22;11557;50.884;4.322;2023-12-22T02:35:04;10.00;99.90
22781;DHT22;11557;50.884;4.322;2023-12-22T02:37:31;10.00;99.90
22781;DHT22;11557;50.884;4.322;2023-12-22T02:39:58;10.10;99.90
22781;DHT22;11557;50.884;4.322;2023-12-22T02:42:25;10.10;99.90
22781;DHT22;11557;50.884;4.322;2023-12-22T02:44:59;10.00;99.90
22781;DHT22;11557;50.884;4.322;2023-12-22T02:47:25;10.10;99.90
22781;DHT22;11557;50.884;4.322;2023-12-22T02:49:53;10.10;99.90
22781;DHT22;11557;50.884;4.322;2023-12-22T02:52:19;10.10;99.90
22781;DHT22;11557;50.884;4.322;2023-12-22T02:54:45;10.10;99.90
22781;DHT22;11557;50.884;4.322;2023-12-22T02:57:12;10.10;99.90
22781;DHT22;11557;50.884;4.322;2023-12-22T02:59:38;10.00;99.90
22781;DHT22;11557;50.884;4.322;2023-12-22T03:02:04;9.90;99.90
22781;DHT22;11557;50.884;4.322;2023-12-22T03:04:29;9.90;99.90
22781;DHT22;11557;50.884;4.322;2023-12-22T03:06:55;9.90;99.90
22781;DHT22;11557;50.884;4.322;2023-12-22T03:09:21;9.90;99.90
22781;DHT22;11557;50.884;4.322;2023-12-22T03:11:47;9.90;99.90
22781;DHT22;11557;50.884;4.322;2023-12-22T03:14:13;9.90;99.90
22781;DHT22;11557;50.884;4.322;2023-12-22T03:16:39;10.00;99.90
22781;DHT22;11557;50.884;4.322;2023-12-22T03:19:06;9.90;99.90
22781;DHT22;11557;50.884;4.322;2023-12-22T03:21:32;10.00;99.90
22781;DHT22;11557;50.884;4.322;2023-12-22T03:23:57;10.00;99.90
22781;DHT22;11557;50.884;4.322;2023-12-22T03:26:23;9.80;99.90
22781;DHT22;11557;50.884;4.322;2023-12-22T03:28:48;9.80;99.90
22781;DHT22;11557;50.884;4.322;2023-12-22T03:31:14;9.90;99.90
22781;DHT22;11557;50.884;4.322;2023-12-22T03:33:40;9.80;99.90
22781;DHT22;11557;50.884;4.322;2023-12-22T03:36:05;9.80;99.90
22781;DHT22;11557;50.884;4.322;2023-12-22T03:38:31;9.60;99.90
22781;DHT22;11557;50.884;4.322;2023-12-22T03:40:57;9.60;99.90
22781;DHT22;11557;50.884;4.322;2023-12-22T03:43:22;9.50;99.90
22781;DHT22;11557;50.884;4.322;2023-12-22T03:45:48;9.50;99.90
22781;DHT22;11557;50.884;4.322;2023-12-22T03:48:13;9.50;99.90
22781;DHT22;11557;50.884;4.322;2023-12-22T03:50:39;9.60;99.90
22781;DHT22;11557;50.884;4.322;2023-12-22T03:53:04;9.60;99.90
22781;DHT22;11557;50.884;4.322;2023-12-22T03:55:30;9.70;99.90
22781;DHT22;11557;50.884;4.322;2023-12-22T03:57:56;9.60;99.90
22781;DHT22;11557;50.884;4.322;2023-12-22T04:00:21;9.60;99.90
22781;DHT22;11557;50.884;4.322;2023-12-22T04:02:47;9.60;99.90
22781;DHT22;11557;50.884;4.322;2023-12-22T04:05:13;9.60;99.90
22781;DHT22;11557;50.884;4.322;2023-12-22T04:07:38;9.50;99.90
22781;DHT22;11557;50.884;4.322;2023-12-22T04:10:04;9.50;99.90
22781;DHT22;11557;50.884;4.322;2023-12-22T04:12:30;9.50;99.90
22781;DHT22;11557;50.884;4.322;2023-12-22T04:14:56;9.30;99.90
22781;DHT22;11557;50.884;4.322;2023-12-22T04:17:21;9.20;99.90
22781;DHT22;11557;50.884;4.322;2023-12-22T04:19:47;9.10;99.90
22781;DHT22;11557;50.884;4.322;2023-12-22T04:22:12;9.00;99.90
22781;DHT22;11557;50.884;4.322;2023-12-22T04:24:38;9.00;99.90
22781;DHT22;11557;50.884;4.322;2023-12-22T04:27:04;8.90;99.90
22781;DHT22;11557;50.884;4.322;2023-12-22T04:29:30;9.00;99.90
22781;DHT22;11557;50.884;4.322;2023-12-22T04:31:55;9.00;99.90
22781;DHT22;11557;50.884;4.322;2023-12-22T04:34:21;9.00;99.90
22781;DHT22;11557;50.884;4.322;2023-12-22T04:36:46;9.10;99.90
22781;DHT22;11557;50.884;4.322;2023-12-22T04:39:12;9.10;99.90
22781;DHT22;11557;50.884;4.322;2023-12-22T04:41:38;9.10;99.90
22781;DHT22;11557;50.884;4.322;2023-12-22T04:44:04;9.00;99.90
22781;DHT22;11557;50.884;4.322;2023-12-22T04:46:30;9.00;99.90
22781;DHT22;11557;50.884;4.322;2023-12-22T04:48:56;9.00;99.90
22781;DHT22;11557;50.884;4.322;2023-12-22T04:51:21;9.00;99.90
22781;DHT22;11557;50.884;4.322;2023-12-22T04:53:47;8.90;99.90
22781;DHT22;11557;50.884;4.322;2023-12-22T04:56:13;9.00;99.90
22781;DHT22;11557;50.884;4.322;2023-12-22T04:58:39;9.10;99.90
22781;DHT22;11557;50.884;4.322;2023-12-22T05:01:05;9.20;99.90
22781;DHT22;11557;50.884;4.322;2023-12-22T05:03:30;9.10;99.90
22781;DHT22;11557;50.884;4.322;2023-12-22T05:05:56;9.00;99.90
22781;DHT22;11557;50.884;4.322;2023-12-22T05:08:22;9.00;99.90
22781;DHT22;11557;50.884;4.322;2023-12-22T05:10:47;9.00;99.90
22781;DHT22;11557;50.884;4.322;2023-12-22T05:13:13;9.00;99.90
22781;DHT22;11557;50.884;4.322;2023-12-22T05:15:38;9.10;99.90
22781;DHT22;11557;50.884;4.322;2023-12-22T05:18:04;9.20;99.90
22781;DHT22;11557;50.884;4.322;2023-12-22T05:20:30;9.20;99.90
22781;DHT22;11557;50.884;4.322;2023-12-22T05:22:55;9.30;99.90
22781;DHT22;11557;50.884;4.322;2023-12-22T05:25:21;9.30;99.90
22781;DHT22;11557;50.884;4.322;2023-12-22T05:27:46;9.30;99.90
22781;DHT22;11557;50.884;4.322;2023-12-22T05:30:12;9.40;99.90
22781;DHT22;11557;50.884;4.322;2023-12-22T05:32:38;9.50;99.90
22781;DHT22;11557;50.884;4.322;2023-12-22T05:35:04;9.60;99.90
22781;DHT22;11557;50.884;4.322;2023-12-22T05:37:30;9.60;99.90
22781;DHT22;11557;50.884;4.322;2023-12-22T05:39:56;9.60;99.90
22781;DHT22;11557;50.884;4.322;2023-12-22T05:42:21;9.70;99.90
22781;DHT22;11557;50.884;4.322;2023-12-22T05:44:47;9.70;99.90
22781;DHT22;11557;50.884;4.322;2023-12-22T05:47:16;9.80;99.90
22781;DHT22;11557;50.884;4.322;2023-12-22T05:49:41;9.90;99.90
22781;DHT22;11557;50.884;4.322;2023-12-22T05:52:07;9.90;99.90
22781;DHT22;11557;50.884;4.322;2023-12-22T05:54:35;10.00;99.90
22781;DHT22;11557;50.884;4.322;2023-12-22T05:57:01;9.90;99.90
22781;DHT22;11557;50.884;4.322;2023-12-22T05:59:27;10.00;99.90
22781;DHT22;11557;50.884;4.322;2023-12-22T06:01:57;9.90;99.90
22781;DHT22;11557;50.884;4.322;2023-12-22T06:04:24;10.00;99.90
22781;DHT22;11557;50.884;4.322;2023-12-22T06:06:50;10.00;99.90
22781;DHT22;11557;50.884;4.322;2023-12-22T06:09:15;10.00;99.90
22781;DHT22;11557;50.884;4.322;2023-12-22T06:11:44;10.00;99.90
22781;DHT22;11557;50.884;4.322;2023-12-22T06:14:09;10.10;99.90
22781;DHT22;11557;50.884;4.322;2023-12-22T06:16:35;10.00;99.90
22781;DHT22;11557;50.884;4.322;2023-12-22T06:19:01;10.10;99.90
22781;DHT22;11557;50.884;4.322;2023-12-22T06:21:26;10.00;99.90
22781;DHT22;11557;50.884;4.322;2023-12-22T06:23:52;9.90;99.90
22781;DHT22;11557;50.884;4.322;2023-12-22T06:26:18;9.90;99.90
22781;DHT22;11557;50.884;4.322;2023-12-22T06:28:43;9.90;99.90
22781;DHT22;11557;50.884;4.322;2023-12-22T06:31:17;9.90;99.90
22781;DHT22;11557;50.884;4.322;2023-12-22T06:33:49;9.90;99.90
22781;DHT22;11557;50.884;4.322;2023-12-22T06:36:22;9.90;99.90
22781;DHT22;11557;50.884;4.322;2023-12-22T06:38:49;9.90;99.90
22781;DHT22;11557;50.884;4.322;2023-12-22T06:41:22;9.90;99.90
22781;DHT22;11557;50.884;4.322;2023-12-22T06:43:48;9.80;99.90
22781;DHT22;11557;50.884;4.322;2023-12-22T06:46:21;9.80;99.90
22781;DHT22;11557;50.884;4.322;2023-12-22T06:48:48;9.70;99.90
22781;DHT22;11557;50.884;4.322;2023-12-22T06:51:25;9.70;99.90
22781;DHT22;11557;50.884;4.322;2023-12-22T06:53:52;9.70;99.90
22781;DHT22;11557;50.884;4.322;2023-12-22T06:56:25;9.80;99.90
22781;DHT22;11557;50.884;4.322;2023-12-22T06:58:53;9.80;99.90
22781;DHT22;11557;50.884;4.322;2023-12-22T07:03:51;9.80;99.90
22781;DHT22;11557;50.884;4.322;2023-12-22T07:06:21;9.80;99.90
22781;DHT22;11557;50.884;4.322;2023-12-22T07:11:52;9.80;99.90
22781;DHT22;11557;50.884;4.322;2023-12-22T07:14:21;9.80;99.90
22781;DHT22;11557;50.884;4.322;2023-12-22T07:16:47;9.70;99.90
22781;DHT22;11557;50.884;4.322;2023-12-22T07:19:12;9.70;99.90
22781;DHT22;11557;50.884;4.322;2023-12-22T07:21:41;9.80;99.90
22781;DHT22;11557;50.884;4.322;2023-12-22T07:24:07;9.80;99.90
22781;DHT22;11557;50.884;4.322;2023-12-22T07:26:33;9.90;99.90
22781;DHT22;11557;50.884;4.322;2023-12-22T07:28:58;9.90;99.90
22781;DHT22;11557;50.884;4.322;2023-12-22T07:31:24;10.00;99.90
22781;DHT22;11557;50.884;4.322;2023-12-22T07:33:50;10.00;99.90
22781;DHT22;11557;50.884;4.322;2023-12-22T07:36:17;10.00;99.90
22781;DHT22;11557;50.884;4.322;2023-12-22T07:38:44;10.00;99.90
22781;DHT22;11557;50.884;4.322;2023-12-22T07:41:09;10.00;99.90
22781;DHT22;11557;50.884;4.322;2023-12-22T07:43:36;10.00;99.90
22781;DHT22;11557;50.884;4.322;2023-12-22T07:46:01;10.10;99.90
22781;DHT22;11557;50.884;4.322;2023-12-22T07:48:27;10.00;99.90
22781;DHT22;11557;50.884;4.322;2023-12-22T07:50:53;10.00;99.90
22781;DHT22;11557;50.884;4.322;2023-12-22T07:53:19;10.00;99.90
22781;DHT22;11557;50.884;4.322;2023-12-22T07:55:45;10.10;99.90
22781;DHT22;11557;50.884;4.322;2023-12-22T07:58:12;10.10;99.90
22781;DHT22;11557;50.884;4.322;2023-12-22T08:00:38;10.10;99.90
22781;DHT22;11557;50.884;4.322;2023-12-22T08:03:04;10.20;99.90
22781;DHT22;11557;50.884;4.322;2023-12-22T08:05:29;10.10;99.90
22781;DHT22;11557;50.884;4.322;2023-12-22T08:07:55;10.10;99.90
22781;DHT22;11557;50.884;4.322;2023-12-22T08:10:21;10.00;99.90
22781;DHT22;11557;50.884;4.322;2023-12-22T08:12:46;10.00;99.90
22781;DHT22;11557;50.884;4.322;2023-12-22T08:15:12;10.00;99.90
22781;DHT22;11557;50.884;4.322;2023-12-22T08:17:49;10.00;99.90
22781;DHT22;11557;50.884;4.322;2023-12-22T08:20:19;10.00;99.90
22781;DHT22;11557;50.884;4.322;2023-12-22T08:22:48;10.10;99.90
22781;DHT22;11557;50.884;4.322;2023-12-22T08:25:14;10.00;99.90
22781;DHT22;11557;50.884;4.322;2023-12-22T08:27:41;10.10;99.90
22781;DHT22;11557;50.884;4.322;2023-12-22T08:30:08;10.00;99.90
22781;DHT22;11557;50.884;4.322;2023-12-22T08:32:34;9.90;99.90
22781;DHT22;11557;50.884;4.322;2023-12-22T08:34:59;9.90;99.90
22781;DHT22;11557;50.884;4.322;2023-12-22T08:37:25;9.90;99.90
22781;DHT22;11557;50.884;4.322;2023-12-22T08:39:50;9.90;99.90
22781;DHT22;11557;50.884;4.322;2023-12-22T08:42:17;9.90;99.90
22781;DHT22;11557;50.884;4.322;2023-12-22T08:44:43;10.00;99.90
22781;DHT22;11557;50.884;4.322;2023-12-22T08:47:08;10.00;99.90
22781;DHT22;11557;50.884;4.322;2023-12-22T08:49:34;10.00;99.90
22781;DHT22;11557;50.884;4.322;2023-12-22T08:52:00;10.00;99.90
22781;DHT22;11557;50.884;4.322;2023-12-22T08:54:25;10.10;99.90
22781;DHT22;11557;50.884;4.322;2023-12-22T08:56:51;10.10;99.90
22781;DHT22;11557;50.884;4.322;2023-12-22T08:59:18;10.20;99.90
22781;DHT22;11557;50.884;4.322;2023-12-22T09:01:43;10.20;99.90
22781;DHT22;11557;50.884;4.322;2023-12-22T09:04:12;10.20;99.90
22781;DHT22;11557;50.884;4.322;2023-12-22T09:06:38;10.30;99.90
22781;DHT22;11557;50.884;4.322;2023-12-22T09:09:05;10.30;99.90
22781;DHT22;11557;50.884;4.322;2023-12-22T09:11:31;10.20;99.90
22781;DHT22;11557;50.884;4.322;2023-12-22T09:13:57;10.30;99.90
22781;DHT22;11557;50.884;4.322;2023-12-22T09:16:23;10.30;99.90
22781;DHT22;11557;50.884;4.322;2023-12-22T09:18:51;10.30;99.90
22781;DHT22;11557;50.884;4.322;2023-12-22T09:21:18;10.30;99.90
22781;DHT22;11557;50.884;4.322;2023-12-22T09:23:47;10.40;99.90
22781;DHT22;11557;50.884;4.322;2023-12-22T09:26:15;10.50;99.90
22781;DHT22;11557;50.884;4.322;2023-12-22T09:28:42;10.50;99.90
22781;DHT22;11557;50.884;4.322;2023-12-22T09:31:08;10.50;99.90
22781;DHT22;11557;50.884;4.322;2023-12-22T09:33:34;10.50;99.90
22781;DHT22;11557;50.884;4.322;2023-12-22T09:36:00;10.40;99.90
22781;DHT22;11557;50.884;4.322;2023-12-22T09:38:26;10.40;99.90
22781;DHT22;11557;50.884;4.322;2023-12-22T09:40:53;10.50;99.90
22781;DHT22;11557;50.884;4.322;2023-12-22T09:43:19;10.50;99.90
22781;DHT22;11557;50.884;4.322;2023-12-22T09:45:52;10.60;99.90
22781;DHT22;11557;50.884;4.322;2023-12-22T09:48:18;10.70;99.90
22781;DHT22;11557;50.884;4.322;2023-12-22T09:50:52;10.70;99.90
22781;DHT22;11557;50.884;4.322;2023-12-22T09:53:20;10.70;99.90
22781;DHT22;11557;50.884;4.322;2023-12-22T09:55:46;10.90;99.90
22781;DHT22;11557;50.884;4.322;2023-12-22T09:58:14;10.90;99.90
22781;DHT22;11557;50.884;4.322;2023-12-22T10:00:40;10.90;99.90
22781;DHT22;11557;50.884;4.322;2023-12-22T10:03:07;10.90;99.90
22781;DHT22;11557;50.884;4.322;2023-12-22T10:05:34;10.90;99.90
22781;DHT22;11557;50.884;4.322;2023-12-22T10:08:00;10.90;99.90
22781;DHT22;11557;50.884;4.322;2023-12-22T10:10:30;10.90;99.90
22781;DHT22;11557;50.884;4.322;2023-12-22T10:12:56;10.90;99.90
22781;DHT22;11557;50.884;4.322;2023-12-22T10:15:24;10.90;99.90
22781;DHT22;11557;50.884;4.322;2023-12-22T10:17:50;11.00;99.90
22781;DHT22;11557;50.884;4.322;2023-12-22T10:20:17;11.00;99.90
22781;DHT22;11557;50.884;4.322;2023-12-22T10:22:43;12.30;99.90
22781;DHT22;11557;50.884;4.322;2023-12-22T10:25:09;11.10;99.90
22781;DHT22;11557;50.884;4.322;2023-12-22T10:27:38;11.10;99.90
22781;DHT22;11557;50.884;4.322;2023-12-22T10:30:04;11.10;99.90
22781;DHT22;11557;50.884;4.322;2023-12-22T10:32:30;11.10;99.90
22781;DHT22;11557;50.884;4.322;2023-12-22T10:34:56;11.10;99.90
22781;DHT22;11557;50.884;4.322;2023-12-22T10:37:24;11.10;99.90
22781;DHT22;11557;50.884;4.322;2023-12-22T10:39:54;11.00;99.90
22781;DHT22;11557;50.884;4.322;2023-12-22T10:42:20;10.90;99.90
22781;DHT22;11557;50.884;4.322;2023-12-22T10:44:46;10.80;99.90
22781;DHT22;11557;50.884;4.322;2023-12-22T10:47:13;10.80;99.90
22781;DHT22;11557;50.884;4.322;2023-12-22T10:49:39;10.80;99.90
22781;DHT22;11557;50.884;4.322;2023-12-22T10:52:05;10.90;99.90
22781;DHT22;11557;50.884;4.322;2023-12-22T10:54:30;10.90;99.90
22781;DHT22;11557;50.884;4.322;2023-12-22T10:57:00;10.80;99.90
22781;DHT22;11557;50.884;4.322;2023-12-22T10:59:29;10.80;99.90
22781;DHT22;11557;50.884;4.322;2023-12-22T11:01:58;10.70;99.90
22781;DHT22;11557;50.884;4.322;2023-12-22T11:04:29;10.70;99.90
22781;DHT22;11557;50.884;4.322;2023-12-22T11:06:57;10.70;99.90
22781;DHT22;11557;50.884;4.322;2023-12-22T11:09:26;10.60;99.90
22781;DHT22;11557;50.884;4.322;2023-12-22T11:11:52;10.60;99.90
22781;DHT22;11557;50.884;4.322;2023-12-22T11:14:19;10.60;99.90
22781;DHT22;11557;50.884;4.322;2023-12-22T11:16:47;10.60;99.90
22781;DHT22;11557;50.884;4.322;2023-12-22T11:19:14;10.60;99.90
22781;DHT22;11557;50.884;4.322;2023-12-22T11:21:40;10.70;99.90
22781;DHT22;11557;50.884;4.322;2023-12-22T11:24:07;10.70;99.90
22781;DHT22;11557;50.884;4.322;2023-12-22T11:26:33;10.80;99.90
22781;DHT22;11557;50.884;4.322;2023-12-22T11:29:02;10.70;99.90
22781;DHT22;11557;50.884;4.322;2023-12-22T11:31:31;10.80;99.90
22781;DHT22;11557;50.884;4.322;2023-12-22T11:33:58;10.80;99.90
22781;DHT22;11557;50.884;4.322;2023-12-22T11:36:24;10.80;99.90
22781;DHT22;11557;50.884;4.322;2023-12-22T11:38:51;10.90;99.90
22781;DHT22;11557;50.884;4.322;2023-12-22T11:41:36;11.00;99.90
22781;DHT22;11557;50.884;4.322;2023-12-22T11:44:05;11.10;99.90
22781;DHT22;11557;50.884;4.322;2023-12-22T11:46:31;11.10;99.90
22781;DHT22;11557;50.884;4.322;2023-12-22T11:48:59;11.10;99.90
22781;DHT22;11557;50.884;4.322;2023-12-22T11:51:31;11.10;99.90
22781;DHT22;11557;50.884;4.322;2023-12-22T11:53:57;11.10;99.90
22781;DHT22;11557;50.884;4.322;2023-12-22T11:56:24;11.10;99.90
22781;DHT22;11557;50.884;4.322;2023-12-22T11:58:52;11.10;99.90
22781;DHT22;11557;50.884;4.322;2023-12-22T12:01:23;11.20;99.90
22781;DHT22;11557;50.884;4.322;2023-12-22T12:08:57;11.30;99.90
22781;DHT22;11557;50.884;4.322;2023-12-22T12:11:23;11.30;99.90
22781;DHT22;11557;50.884;4.322;2023-12-22T12:13:50;11.30;99.90
22781;DHT22;11557;50.884;4.322;2023-12-22T12:16:20;11.40;99.90
22781;DHT22;11557;50.884;4.322;2023-12-22T12:18:50;11.50;99.90
22781;DHT22;11557;50.884;4.322;2023-12-22T12:21:18;11.50;99.90
22781;DHT22;11557;50.884;4.322;2023-12-22T12:23:43;11.40;99.90
22781;DHT22;11557;50.884;4.322;2023-12-22T12:26:11;11.50;99.90
22781;DHT22;11557;50.884;4.322;2023-12-22T12:28:38;11.50;99.90
22781;DHT22;11557;50.884;4.322;2023-12-22T12:31:09;11.50;99.90
22781;DHT22;11557;50.884;4.322;2023-12-22T12:33:35;11.50;99.90
22781;DHT22;11557;50.884;4.322;2023-12-22T12:36:02;11.70;99.90
22781;DHT22;11557;50.884;4.322;2023-12-22T12:38:48;11.50;99.90
22781;DHT22;11557;50.884;4.322;2023-12-22T12:41:18;11.50;99.90
22781;DHT22;11557;50.884;4.322;2023-12-22T12:43:49;11.50;99.90
22781;DHT22;11557;50.884;4.322;2023-12-22T12:46:16;11.50;99.90
22781;DHT22;11557;50.884;4.322;2023-12-22T12:48:42;11.50;99.90
22781;DHT22;11557;50.884;4.322;2023-12-22T12:51:08;11.50;99.90
22781;DHT22;11557;50.884;4.322;2023-12-22T12:53:34;11.50;99.90
22781;DHT22;11557;50.884;4.322;2023-12-22T12:56:01;11.40;99.90
22781;DHT22;11557;50.884;4.322;2023-12-22T12:58:31;11.40;99.90
22781;DHT22;11557;50.884;4.322;2023-12-22T13:01:06;11.30;99.90
22781;DHT22;11557;50.884;4.322;2023-12-22T13:03:32;11.40;99.90
22781;DHT22;11557;50.884;4.322;2023-12-22T13:06:07;11.40;99.90
22781;DHT22;11557;50.884;4.322;2023-12-22T13:08:33;11.40;99.90
22781;DHT22;11557;50.884;4.322;2023-12-22T13:11:02;11.40;99.90
22781;DHT22;11557;50.884;4.322;2023-12-22T13:13:28;11.30;99.90
22781;DHT22;11557;50.884;4.322;2023-12-22T13:15:53;11.40;99.90
22781;DHT22;11557;50.884;4.322;2023-12-22T13:18:19;11.40;99.90
22781;DHT22;11557;50.884;4.322;2023-12-22T13:20:45;11.40;99.90
22781;DHT22;11557;50.884;4.322;2023-12-22T13:23:10;11.40;99.90
22781;DHT22;11557;50.884;4.322;2023-12-22T13:25:40;11.40;99.90
22781;DHT22;11557;50.884;4.322;2023-12-22T13:28:05;11.50;99.90
22781;DHT22;11557;50.884;4.322;2023-12-22T13:30:38;11.50;99.90
22781;DHT22;11557;50.884;4.322;2023-12-22T13:33:07;11.50;99.90
22781;DHT22;11557;50.884;4.322;2023-12-22T13:35:36;11.50;99.90
22781;DHT22;11557;50.884;4.322;2023-12-22T13:38:05;11.50;99.90
22781;DHT22;11557;50.884;4.322;2023-12-22T13:40:32;11.50;99.90
22781;DHT22;11557;50.884;4.322;2023-12-22T13:42:58;11.50;99.90
22781;DHT22;11557;50.884;4.322;2023-12-22T13:45:27;11.50;99.90
22781;DHT22;11557;50.884;4.322;2023-12-22T13:47:53;11.50;99.90
22781;DHT22;11557;50.884;4.322;2023-12-22T13:50:19;11.50;99.90
22781;DHT22;11557;50.884;4.322;2023-12-22T13:52:48;11.40;99.90
22781;DHT22;11557;50.884;4.322;2023-12-22T13:55:17;11.50;99.90
22781;DHT22;11557;50.884;4.322;2023-12-22T13:57:43;11.50;99.90
22781;DHT22;11557;50.884;4.322;2023-12-22T14:02:44;11.50;99.90
22781;DHT22;11557;50.884;4.322;2023-12-22T14:05:10;11.40;99.90
22781;DHT22;11557;50.884;4.322;2023-12-22T14:07:35;11.50;99.90
22781;DHT22;11557;50.884;4.322;2023-12-22T14:10:05;11.50;99.90
22781;DHT22;11557;50.884;4.322;2023-12-22T14:12:31;11.50;99.90
22781;DHT22;11557;50.884;4.322;2023-12-22T14:14:56;11.50;99.90
22781;DHT22;11557;50.884;4.322;2023-12-22T14:17:22;11.50;99.90
22781;DHT22;11557;50.884;4.322;2023-12-22T14:19:48;11.50;99.90
22781;DHT22;11557;50.884;4.322;2023-12-22T14:22:15;11.50;99.90
22781;DHT22;11557;50.884;4.322;2023-12-22T14:24:40;11.50;99.90
22781;DHT22;11557;50.884;4.322;2023-12-22T14:27:06;11.60;99.90
22781;DHT22;11557;50.884;4.322;2023-12-22T14:29:32;11.50;99.90
22781;DHT22;11557;50.884;4.322;2023-12-22T14:31:58;11.60;99.90
22781;DHT22;11557;50.884;4.322;2023-12-22T14:34:24;11.60;99.90
22781;DHT22;11557;50.884;4.322;2023-12-22T14:36:50;11.60;99.90
22781;DHT22;11557;50.884;4.322;2023-12-22T14:39:15;11.60;99.90
22781;DHT22;11557;50.884;4.322;2023-12-22T14:41:41;11.60;99.90
22781;DHT22;11557;50.884;4.322;2023-12-22T14:44:09;11.60;99.90
22781;DHT22;11557;50.884;4.322;2023-12-22T14:46:41;11.60;99.90
22781;DHT22;11557;50.884;4.322;2023-12-22T14:49:07;11.60;99.90
22781;DHT22;11557;50.884;4.322;2023-12-22T14:51:38;11.60;99.90
22781;DHT22;11557;50.884;4.322;2023-12-22T14:54:07;11.60;99.90
22781;DHT22;11557;50.884;4.322;2023-12-22T14:56:40;11.70;99.90
22781;DHT22;11557;50.884;4.322;2023-12-22T14:59:08;11.60;99.90
22781;DHT22;11557;50.884;4.322;2023-12-22T15:01:35;11.60;99.90
22781;DHT22;11557;50.884;4.322;2023-12-22T15:04:01;11.60;99.90
22781;DHT22;11557;50.884;4.322;2023-12-22T15:06:28;11.70;99.90
22781;DHT22;11557;50.884;4.322;2023-12-22T15:08:54;11.70;99.90
22781;DHT22;11557;50.884;4.322;2023-12-22T15:11:20;11.60;99.90
22781;DHT22;11557;50.884;4.322;2023-12-22T15:13:46;11.70;99.90
22781;DHT22;11557;50.884;4.322;2023-12-22T15:16:11;11.70;99.90
22781;DHT22;11557;50.884;4.322;2023-12-22T15:18:37;11.70;99.90
22781;DHT22;11557;50.884;4.322;2023-12-22T15:21:03;11.70;99.90
22781;DHT22;11557;50.884;4.322;2023-12-22T15:23:29;11.70;99.90
22781;DHT22;11557;50.884;4.322;2023-12-22T15:25:57;11.70;99.90
22781;DHT22;11557;50.884;4.322;2023-12-22T15:28:23;11.80;99.90
22781;DHT22;11557;50.884;4.322;2023-12-22T15:30:48;11.70;99.90
22781;DHT22;11557;50.884;4.322;2023-12-22T15:33:14;11.70;99.90
22781;DHT22;11557;50.884;4.322;2023-12-22T15:35:40;11.70;99.90
22781;DHT22;11557;50.884;4.322;2023-12-22T15:38:06;11.80;99.90
22781;DHT22;11557;50.884;4.322;2023-12-22T15:40:31;11.70;99.90
22781;DHT22;11557;50.884;4.322;2023-12-22T15:42:57;11.70;99.90
22781;DHT22;11557;50.884;4.322;2023-12-22T15:45:23;11.80;99.90
22781;DHT22;11557;50.884;4.322;2023-12-22T15:47:48;11.80;99.90